Time;durP1;ratioP1;P1;durP2;ratioP2;P2;SDS_P1;SDS_P2;PMS_P1;PMS_P2;Temp;Humidity;BMP_temperature;BMP_pressure;BME280_temperature;BME280_humidity;BME280_pressure;Samples;Min_cycle;Max_cycle;Signal;HPM_P1;HPM_P2
2022/08/31 00:04:46;;;;;;;11.60;3.88;;;;;;;15.28;82.37;101908.38;5048590;28;20127;-71
2022/08/31 00:07:11;;;;;;;14.27;4.90;;;;;;;15.29;82.00;101906.56;5050877;28;20152;-71
2022/08/31 00:09:37;;;;;;;10.95;4.35;;;;;;;15.27;82.42;101903.09;5045230;28;20049;-71
2022/08/31 00:12:03;;;;;;;11.18;4.30;;;;;;;15.25;82.28;101905.06;5046924;28;20036;-72
2022/08/31 00:14:28;;;;;;;10.00;4.00;;;;;;;15.21;82.66;101899.00;5048268;28;20473;-72
2022/08/31 00:16:53;;;;;;;15.40;5.10;;;;;;;15.22;83.14;101899.88;5049013;28;20029;-72
2022/08/31 00:19:19;;;;;;;11.43;4.00;;;;;;;15.22;82.82;101899.88;5051183;28;20108;-72
2022/08/31 00:21:44;;;;;;;14.88;4.70;;;;;;;15.22;82.92;101899.88;5035532;28;20485;-72
2022/08/31 00:24:10;;;;;;;10.57;4.50;;;;;;;15.22;83.43;101897.19;5043546;28;20025;-72
2022/08/31 00:26:36;;;;;;;9.80;4.55;;;;;;;15.19;83.22;101890.16;5035202;28;20029;-72
2022/08/31 00:29:02;;;;;;;10.10;3.80;;;;;;;15.22;82.97;101895.31;5047822;28;20048;-72
2022/08/31 00:31:27;;;;;;;9.45;4.35;;;;;;;15.18;83.84;101889.28;5060717;28;20053;-72
2022/08/31 00:33:52;;;;;;;14.55;4.93;;;;;;;15.20;83.69;101891.88;5045808;28;20439;-72
2022/08/31 00:36:24;;;;;;;13.40;4.53;;;;;;;15.17;83.47;101898.38;5042395;28;20029;-71
2022/08/31 00:38:53;;;;;;;11.20;4.13;;;;;;;15.21;83.65;101904.41;5050309;28;20052;-71
2022/08/31 00:41:22;;;;;;;10.20;4.22;;;;;;;15.22;82.93;101902.59;5063872;28;20091;-71
2022/08/31 00:43:49;;;;;;;13.98;4.75;;;;;;;15.19;83.72;101895.56;5036430;28;20558;-71
2022/08/31 00:46:20;;;;;;;12.85;4.30;;;;;;;15.18;84.00;101894.72;5047090;28;20059;-71
2022/08/31 00:49:03;;;;;;;11.52;4.28;;;;;;;15.18;83.93;101894.72;5042189;28;20024;-71
2022/08/31 00:51:32;;;;;;;13.82;5.22;;;;;;;15.15;84.49;101888.66;5048198;28;20021;-71
2022/08/31 00:53:59;;;;;;;10.00;4.35;;;;;;;15.20;84.22;101894.59;5046336;28;20119;-71
2022/08/31 00:56:25;;;;;;;12.75;4.80;;;;;;;15.22;84.37;101898.03;5046292;28;20095;-71
2022/08/31 00:58:52;;;;;;;11.98;4.75;;;;;;;15.23;84.45;101898.88;5048568;28;20036;-71
2022/08/31 01:01:18;;;;;;;10.55;4.50;;;;;;;15.21;84.77;101893.59;5048817;28;20477;-71
2022/08/31 01:03:47;;;;;;;9.57;3.88;;;;;;;15.23;84.46;101897.06;5047097;28;20071;-71
2022/08/31 01:06:14;;;;;;;11.77;4.63;;;;;;;15.23;84.23;101893.47;5050255;28;20029;-71
2022/08/31 01:08:40;;;;;;;11.02;4.15;;;;;;;15.22;84.12;101897.19;5049643;28;20093;-72
2022/08/31 01:11:07;;;;;;;11.50;4.13;;;;;;;15.21;84.45;101888.16;5048592;28;20044;-71
2022/08/31 01:13:32;;;;;;;9.10;4.40;;;;;;;15.20;84.47;101892.72;5037504;28;20033;-72
2022/08/31 01:16:02;;;;;;;12.48;4.40;;;;;;;15.17;84.32;101890.25;5044149;28;20468;-72
2022/08/31 01:18:29;;;;;;;10.05;4.07;;;;;;;15.17;84.43;101892.97;5048307;28;20037;-72
2022/08/31 01:21:20;;;;;;;11.40;4.30;;;;;;;15.15;84.62;101894.06;5050526;28;20074;-72
2022/08/31 01:23:45;;;;;;;14.77;4.95;;;;;;;15.14;84.82;101884.19;5033840;28;20067;-72
2022/08/31 01:26:15;;;;;;;12.52;4.43;;;;;;;15.15;84.39;101883.22;5046141;28;20028;-72
2022/08/31 01:28:41;;;;;;;12.50;4.40;;;;;;;15.14;84.84;101884.19;5043560;28;20469;-72
2022/08/31 01:31:18;;;;;;;10.80;4.25;;;;;;;15.14;84.54;101887.78;5048102;28;20039;-72
2022/08/31 01:33:43;;;;;;;13.02;4.32;;;;;;;15.12;84.99;101881.63;5036542;28;21349;-72
2022/08/31 01:36:09;;;;;;;14.50;4.78;;;;;;;15.12;84.35;101883.47;5044883;28;20394;-72
2022/08/31 01:38:35;;;;;;;11.43;3.78;;;;;;;15.14;84.83;101884.19;5048695;28;20033;-72
2022/08/31 01:41:01;;;;;;;14.85;4.22;;;;;;;15.12;84.64;101881.63;5050669;28;20071;-72
2022/08/31 01:43:27;;;;;;;10.32;4.20;;;;;;;15.13;84.32;101885.19;5045427;28;20041;-72
2022/08/31 01:45:52;;;;;;;11.55;4.40;;;;;;;15.13;84.97;101885.19;5036712;28;20513;-72
2022/08/31 01:48:19;;;;;;;10.70;4.03;;;;;;;15.13;84.48;101885.19;5047842;28;20237;-71
2022/08/31 01:50:44;;;;;;;12.57;4.18;;;;;;;15.12;84.54;101886.19;5032515;28;20521;-71
2022/08/31 01:53:10;;;;;;;12.65;4.55;;;;;;;15.15;84.36;101891.34;5031940;28;20025;-71
2022/08/31 01:55:36;;;;;;;11.02;4.35;;;;;;;15.17;83.95;101886.69;5040080;28;20086;-71
2022/08/31 01:58:01;;;;;;;10.07;3.95;;;;;;;15.19;83.88;101890.16;5039449;28;20409;-72
2022/08/31 02:00:28;;;;;;;11.57;4.45;;;;;;;15.20;84.14;101898.16;5032525;28;20443;-72
2022/08/31 02:02:56;;;;;;;9.18;4.10;;;;;;;15.22;84.34;101900.75;5029569;28;20433;-72
2022/08/31 02:05:21;;;;;;;13.93;4.70;;;;;;;15.21;83.36;101899.00;5047752;28;20025;-72
2022/08/31 02:07:46;;;;;;;13.95;3.88;;;;;;;15.22;84.00;101905.31;5035264;28;20111;-72
2022/08/31 02:10:12;;;;;;;12.88;4.00;;;;;;;15.23;83.04;101902.47;5047220;28;20389;-72
2022/08/31 02:12:37;;;;;;;10.15;3.72;;;;;;;15.24;84.05;101896.06;5036884;28;20036;-72
2022/08/31 02:15:03;;;;;;;9.40;3.90;;;;;;;15.22;83.29;101898.03;5032713;28;20037;-72
2022/08/31 02:17:28;;;;;;;11.48;4.10;;;;;;;15.23;83.19;101902.47;5036438;28;20393;-72
2022/08/31 02:19:54;;;;;;;9.60;3.88;;;;;;;15.22;83.03;101906.16;5047509;28;20067;-72
2022/08/31 02:22:19;;;;;;;9.90;3.85;;;;;;;15.22;83.49;101900.75;5035630;28;20095;-71
2022/08/31 02:24:44;;;;;;;10.50;3.88;;;;;;;15.26;83.33;101904.09;5045906;28;20033;-71
2022/08/31 02:27:10;;;;;;;10.57;4.00;;;;;;;15.26;83.69;101907.66;5044915;28;20031;-71
2022/08/31 02:29:35;;;;;;;8.63;3.50;;;;;;;15.23;83.55;101907.00;5048600;28;20036;-71
2022/08/31 02:32:00;;;;;;;10.90;4.25;;;;;;;15.20;83.40;101908.13;5047540;28;20059;-71
2022/08/31 02:34:26;;;;;;;7.90;3.75;;;;;;;15.22;83.48;101914.28;5047027;28;20132;-72
2022/08/31 02:36:52;;;;;;;12.13;4.13;;;;;;;15.20;83.03;101903.56;5041842;28;20020;-72
2022/08/31 02:39:17;;;;;;;12.00;4.53;;;;;;;15.21;83.19;101907.13;5046751;28;20043;-72
2022/08/31 02:41:42;;;;;;;10.82;4.30;;;;;;;15.20;83.65;101900.84;5043126;28;20021;-72
2022/08/31 02:44:08;;;;;;;10.48;3.83;;;;;;;15.18;83.50;101904.66;5046389;28;20382;-72
2022/08/31 02:46:33;;;;;;;9.65;3.85;;;;;;;15.19;83.03;101901.81;5049873;28;20070;-72
2022/08/31 02:49:00;;;;;;;13.98;4.32;;;;;;;15.17;83.55;101901.09;5045698;28;20017;-72
2022/08/31 02:51:25;;;;;;;11.70;4.00;;;;;;;15.22;83.66;101902.59;5043614;28;20441;-72
2022/08/31 02:53:50;;;;;;;12.75;4.40;;;;;;;15.24;82.76;101896.06;5048324;28;20025;-72
2022/08/31 02:56:16;;;;;;;8.75;4.00;;;;;;;15.26;82.76;101898.69;5045890;28;20032;-72
2022/08/31 02:58:41;;;;;;;10.25;4.05;;;;;;;15.25;83.25;101896.94;5051312;28;20407;-72
2022/08/31 03:01:06;;;;;;;9.88;3.90;;;;;;;15.24;82.73;101904.19;5044880;28;20028;-72
2022/08/31 03:03:33;;;;;;;11.00;4.00;;;;;;;15.21;82.82;101896.28;5050333;28;20028;-72
2022/08/31 03:05:59;;;;;;;12.35;4.40;;;;;;;15.19;83.08;101903.69;5048539;28;20059;-72
2022/08/31 03:08:24;;;;;;;10.80;4.00;;;;;;;15.16;81.86;101891.22;5048109;28;20033;-72
2022/08/31 03:10:50;;;;;;;10.77;4.15;;;;;;;15.17;82.61;101897.53;5041452;28;20074;-72
2022/08/31 03:13:15;;;;;;;10.00;4.20;;;;;;;15.16;82.53;101899.34;5051426;28;20037;-71
2022/08/31 03:15:41;;;;;;;11.55;4.25;;;;;;;15.15;82.17;101894.94;5049843;28;20029;-71
2022/08/31 03:18:06;;;;;;;11.75;4.30;;;;;;;15.16;82.23;101895.81;5047255;28;20052;-71
2022/08/31 03:20:31;;;;;;;12.23;3.72;;;;;;;15.12;82.42;101894.31;5035159;28;20039;-72
2022/08/31 03:22:57;;;;;;;9.50;4.18;;;;;;;15.10;82.50;101897.13;5049681;28;20033;-72
2022/08/31 03:25:22;;;;;;;9.48;4.05;;;;;;;15.08;82.82;101899.09;5050146;28;20086;-72
2022/08/31 03:27:48;;;;;;;11.40;4.50;;;;;;;15.07;82.96;101901.91;5049110;28;20021;-72
2022/08/31 03:30:17;;;;;;;10.48;4.20;;;;;;;15.01;83.19;101904.09;5045126;28;20045;-72
2022/08/31 03:32:44;;;;;;;12.57;4.45;;;;;;;14.95;82.93;101898.28;5047294;28;20429;-71
2022/08/31 03:35:10;;;;;;;16.02;4.65;;;;;;;14.90;83.30;101900.47;5051566;28;20057;-72
2022/08/31 03:37:35;;;;;;;8.88;3.78;;;;;;;14.89;83.24;101901.44;5045536;28;20055;-72
2022/08/31 03:40:00;;;;;;;10.30;4.40;;;;;;;14.86;83.21;101905.22;5049359;28;20358;-72
2022/08/31 03:42:26;;;;;;;12.95;4.03;;;;;;;14.88;83.13;101905.16;5039064;28;20064;-71
2022/08/31 03:44:51;;;;;;;8.98;4.00;;;;;;;14.86;83.29;101905.22;5049171;28;20025;-71
2022/08/31 03:47:17;;;;;;;10.88;4.40;;;;;;;14.89;83.24;101906.84;5033298;28;20109;-71
2022/08/31 03:49:43;;;;;;;15.35;4.82;;;;;;;14.86;82.87;101910.66;5048613;28;20047;-72
2022/08/31 03:52:08;;;;;;;9.63;4.07;;;;;;;14.83;82.97;101905.47;5035906;28;20391;-72
2022/08/31 03:54:34;;;;;;;14.13;4.22;;;;;;;14.82;83.19;101910.03;5034699;28;20056;-72
2022/08/31 03:56:59;;;;;;;10.32;4.00;;;;;;;14.77;83.27;101906.78;5039849;28;20037;-72
2022/08/31 03:59:25;;;;;;;8.60;3.97;;;;;;;14.71;83.65;101911.81;5045860;28;20025;-71
2022/08/31 04:01:50;;;;;;;14.73;5.18;;;;;;;14.69;83.40;101903.81;5048448;28;20040;-71
2022/08/31 04:04:15;;;;;;;13.65;4.25;;;;;;;14.67;83.61;101901.22;5041557;28;20090;-72
2022/08/31 04:06:43;;;;;;;15.32;5.07;;;;;;;14.63;84.06;101906.97;5052815;28;20446;-72
2022/08/31 04:09:08;;;;;;;13.55;4.20;;;;;;;14.62;83.97;101907.94;5045958;28;20025;-72
2022/08/31 04:11:34;;;;;;;12.13;4.68;;;;;;;14.58;84.08;101904.53;5045685;28;20091;-72
2022/08/31 04:13:59;;;;;;;12.45;4.40;;;;;;;14.57;84.71;101910.06;5035638;28;20037;-72
2022/08/31 04:16:25;;;;;;;13.00;4.18;;;;;;;14.53;84.51;101909.44;5051583;28;20104;-72
2022/08/31 04:18:51;;;;;;;9.77;4.13;;;;;;;14.50;84.81;101904.25;5052110;28;20047;-72
2022/08/31 04:21:24;;;;;;;11.88;4.05;;;;;;;14.47;84.84;101904.50;5047285;28;20484;-72
2022/08/31 04:23:51;;;;;;;8.65;3.72;;;;;;;14.46;84.48;101903.59;5038612;28;20103;-71
2022/08/31 04:26:21;;;;;;;11.80;4.25;;;;;;;14.48;83.78;101907.06;5044254;28;20042;-72
2022/08/31 04:28:47;;;;;;;15.35;4.53;;;;;;;14.48;83.71;101911.59;5038194;28;20037;-72
2022/08/31 04:31:13;;;;;;;10.10;4.32;;;;;;;14.43;84.14;101913.78;5042121;28;20032;-71
2022/08/31 04:33:40;;;;;;;11.63;3.88;;;;;;;14.44;83.53;101918.25;5036094;28;20044;-71
2022/08/31 04:36:07;;;;;;;12.38;4.80;;;;;;;14.42;83.23;101914.75;5046235;28;20045;-71
2022/08/31 04:38:33;;;;;;;11.23;4.18;;;;;;;14.41;83.45;101915.75;5050038;28;20327;-71
2022/08/31 04:41:08;;;;;;;12.05;4.13;;;;;;;14.37;82.74;101914.25;5038838;28;20036;-71
2022/08/31 04:43:34;;;;;;;10.85;4.13;;;;;;;14.34;83.59;101921.59;5045332;28;20248;-71
2022/08/31 04:46:01;;;;;;;9.90;3.63;;;;;;;14.29;83.46;101922.88;5049625;28;20108;-71
2022/08/31 04:48:26;;;;;;;11.13;3.80;;;;;;;14.24;83.32;101920.53;5050547;28;20074;-72
2022/08/31 04:50:59;;;;;;;11.00;3.95;;;;;;;14.19;83.85;101927.22;5047595;28;20032;-72
2022/08/31 04:53:24;;;;;;;9.77;3.90;;;;;;;14.09;83.85;101922.50;5033988;28;20025;-72
2022/08/31 04:55:49;;;;;;;9.02;3.33;;;;;;;14.06;83.91;101924.56;5048754;28;20168;-72
2022/08/31 04:58:16;;;;;;;14.23;4.43;;;;;;;13.99;83.85;101926.81;5049679;28;20059;-72
2022/08/31 05:00:42;;;;;;;13.68;3.95;;;;;;;13.92;84.20;101931.78;5046377;28;20063;-72
2022/08/31 05:03:08;;;;;;;12.13;3.78;;;;;;;13.89;83.95;101928.44;5043150;28;20488;-72
2022/08/31 05:05:39;;;;;;;8.77;3.60;;;;;;;13.85;83.47;101925.09;5047791;28;20052;-72
2022/08/31 05:08:05;;;;;;;8.25;3.45;;;;;;;13.83;83.71;101920.78;5043955;28;20072;-72
2022/08/31 05:10:31;;;;;;;9.48;3.92;;;;;;;13.80;84.03;101924.53;5033896;28;20083;-72
2022/08/31 05:12:56;;;;;;;12.00;3.85;;;;;;;13.77;83.60;101919.34;5038024;28;20329;-72
2022/08/31 05:15:21;;;;;;;11.75;3.85;;;;;;;13.75;83.93;101929.41;5044047;28;20032;-72
2022/08/31 05:17:47;;;;;;;11.55;3.90;;;;;;;13.73;84.15;101932.19;5041928;28;20133;-72
2022/08/31 05:20:12;;;;;;;9.98;3.83;;;;;;;13.74;83.80;101938.50;5039265;28;20083;-72
2022/08/31 05:22:37;;;;;;;9.15;3.80;;;;;;;13.73;83.04;101929.50;5048174;28;20029;-72
2022/08/31 05:25:05;;;;;;;11.30;3.83;;;;;;;13.73;83.62;101929.50;5044782;28;20489;-72
2022/08/31 05:27:32;;;;;;;12.95;3.70;;;;;;;13.75;84.09;101942.94;5045452;28;20044;-72
2022/08/31 05:29:57;;;;;;;11.88;3.80;;;;;;;13.74;83.21;101938.50;5040824;28;20028;-72
2022/08/31 05:32:22;;;;;;;10.45;3.35;;;;;;;13.76;83.37;101937.41;5048983;28;20036;-72
2022/08/31 05:34:48;;;;;;;11.63;3.50;;;;;;;13.77;83.30;101936.44;5048431;28;20045;-72
2022/08/31 05:37:13;;;;;;;11.52;4.05;;;;;;;13.81;83.07;101943.34;5048780;28;20113;-72
2022/08/31 05:39:39;;;;;;;8.02;3.47;;;;;;;13.82;84.01;101941.50;5046032;28;20128;-72
2022/08/31 05:42:06;;;;;;;10.82;3.60;;;;;;;13.83;83.73;101945.94;5043180;28;20025;-72
2022/08/31 05:44:33;;;;;;;12.30;4.05;;;;;;;13.84;83.21;101949.53;5045575;28;20609;-72
2022/08/31 05:46:59;;;;;;;14.88;4.05;;;;;;;13.86;82.26;101947.56;5050473;28;20438;-72
2022/08/31 05:49:24;;;;;;;10.45;3.38;;;;;;;13.90;81.77;101952.66;5037506;28;20025;-72
2022/08/31 05:51:49;;;;;;;11.90;3.30;;;;;;;13.92;82.80;101947.13;5047427;28;20032;-72
2022/08/31 05:54:16;;;;;;;10.85;3.60;;;;;;;13.93;81.98;101949.72;5040572;28;20021;-72
2022/08/31 05:56:42;;;;;;;9.40;3.22;;;;;;;13.97;81.58;101948.56;5043853;28;20029;-72
2022/08/31 05:59:07;;;;;;;11.32;3.42;;;;;;;14.01;81.01;101940.22;5046383;28;20025;-72
2022/08/31 06:01:36;;;;;;;9.40;3.00;;;;;;;14.06;80.79;101959.69;5044118;28;20498;-72
2022/08/31 06:04:02;;;;;;;10.65;3.67;;;;;;;14.09;80.89;101954.94;5047488;28;20051;-72
2022/08/31 06:06:28;;;;;;;11.45;3.72;;;;;;;14.11;80.23;101957.53;5045149;28;20049;-71
2022/08/31 06:08:54;;;;;;;9.75;3.40;;;;;;;14.16;80.39;101960.78;5064419;28;20068;-71
2022/08/31 06:11:23;;;;;;;8.30;2.70;;;;;;;14.19;79.41;101960.56;5041309;28;20768;-71
2022/08/31 06:13:51;;;;;;;11.45;3.55;;;;;;;14.24;77.67;101961.09;5049906;28;20070;-71
2022/08/31 06:16:17;;;;;;;8.30;3.40;;;;;;;14.29;78.17;101967.03;5042921;28;20175;-72
2022/08/31 06:18:49;;;;;;;9.65;3.40;;;;;;;14.34;77.86;101962.16;5038399;28;20032;-72
2022/08/31 06:21:22;;;;;;;7.80;3.20;;;;;;;14.41;78.11;101959.88;5042075;28;20509;-71
2022/08/31 06:23:50;;;;;;;14.30;3.42;;;;;;;14.50;76.46;101961.06;5039535;28;20025;-71
2022/08/31 06:26:18;;;;;;;7.03;3.22;;;;;;;14.57;75.86;101970.47;5040330;28;20063;-71
2022/08/31 06:28:46;;;;;;;10.02;3.67;;;;;;;14.65;76.53;101967.22;5044032;28;20440;-71
2022/08/31 06:31:15;;;;;;;10.30;3.05;;;;;;;14.74;74.93;101973.81;5040633;28;20407;-71
2022/08/31 06:33:41;;;;;;;6.57;2.88;;;;;;;14.83;75.37;101965.00;5038728;28;20037;-71
2022/08/31 06:36:11;;;;;;;10.20;3.00;;;;;;;14.92;74.99;101977.00;5046707;28;20098;-71
2022/08/31 06:38:37;;;;;;;12.98;3.63;;;;;;;15.00;75.08;101978.16;5046243;28;20032;-71
2022/08/31 06:41:11;;;;;;;11.65;3.40;;;;;;;15.09;73.84;101983.88;5046192;28;20044;-72
2022/08/31 06:43:36;;;;;;;10.77;3.40;;;;;;;15.16;72.94;101990.56;5047414;28;20020;-72
2022/08/31 06:46:01;;;;;;;11.27;3.38;;;;;;;15.22;72.61;101984.69;5049087;28;20333;-72
2022/08/31 06:48:26;;;;;;;8.02;3.45;;;;;;;15.30;73.91;101990.41;5051529;28;20020;-72
2022/08/31 06:50:56;;;;;;;9.45;3.20;;;;;;;15.34;71.81;101986.50;5050365;28;20028;-72
2022/08/31 06:53:21;;;;;;;12.07;3.40;;;;;;;15.39;71.61;101978.00;5052167;28;20447;-72
2022/08/31 06:55:47;;;;;;;12.27;3.50;;;;;;;15.44;71.49;101985.78;5053254;28;20029;-72
2022/08/31 06:58:13;;;;;;;10.30;3.58;;;;;;;15.47;70.60;101980.13;5053133;28;20032;-72
2022/08/31 07:00:38;;;;;;;15.32;3.70;;;;;;;15.54;70.04;101986.81;5037678;28;20497;-72
2022/08/31 07:03:21;;;;;;;9.27;3.35;;;;;;;15.60;71.54;101989.03;5052980;28;20032;-72
2022/08/31 07:05:47;;;;;;;8.30;3.08;;;;;;;15.66;70.92;101985.00;5048815;28;20481;-69
2022/08/31 07:08:12;;;;;;;9.65;3.50;;;;;;;15.71;70.17;101989.09;5047317;28;20112;-69
2022/08/31 07:10:38;;;;;;;8.15;2.90;;;;;;;15.76;70.17;101996.00;5050539;28;20044;-69
2022/08/31 07:13:03;;;;;;;9.80;3.15;;;;;;;15.81;70.07;102004.66;5049613;28;20041;-73
2022/08/31 07:15:28;;;;;;;9.55;3.40;;;;;;;15.84;68.89;101999.91;5045950;28;20028;-71
2022/08/31 07:17:54;;;;;;;8.07;3.03;;;;;;;15.89;69.31;101996.81;5044660;28;20029;-72
2022/08/31 07:20:19;;;;;;;7.40;2.85;;;;;;;15.92;68.65;101996.59;5046610;28;20021;-72
2022/08/31 07:22:44;;;;;;;9.55;3.53;;;;;;;15.95;67.75;102000.91;5046217;28;21183;-72
2022/08/31 07:25:09;;;;;;;11.00;3.30;;;;;;;16.00;68.51;101996.84;5048512;28;20076;-72
2022/08/31 07:27:35;;;;;;;10.32;3.47;;;;;;;16.07;69.76;101998.06;5051706;28;20504;-72
2022/08/31 07:30:01;;;;;;;10.77;3.40;;;;;;;16.12;68.48;101999.56;5044361;28;20033;-72
2022/08/31 07:32:26;;;;;;;9.57;3.42;;;;;;;16.14;67.52;101989.47;5046202;28;20094;-72
2022/08/31 07:34:51;;;;;;;7.63;3.17;;;;;;;16.15;67.14;101994.78;5047292;28;20065;-74
2022/08/31 07:42:45;;;;;;;8.13;2.97;;;;;;;16.28;66.36;101994.66;5043161;28;20035;-72
2022/08/31 07:45:20;;;;;;;9.63;3.33;;;;;;;16.32;67.60;101992.56;5046264;28;20025;-72
2022/08/31 07:47:50;;;;;;;8.82;3.10;;;;;;;16.34;67.16;101996.91;5045853;28;20075;-72
2022/08/31 07:50:16;;;;;;;7.07;2.85;;;;;;;16.39;67.12;102005.53;5049437;28;20029;-72
2022/08/31 07:52:52;;;;;;;12.27;3.53;;;;;;;16.43;67.95;101996.16;5050717;28;20396;-72
2022/08/31 07:55:21;;;;;;;6.28;3.00;;;;;;;16.48;67.20;102003.06;5049630;28;20040;-72
2022/08/31 07:57:46;;;;;;;12.15;3.28;;;;;;;16.56;68.04;101996.03;5050820;28;20059;-73
2022/08/31 08:00:18;;;;;;;9.52;3.00;;;;;;;16.62;68.33;102005.53;5049022;28;20080;-73
2022/08/31 08:02:46;;;;;;;9.43;3.33;;;;;;;16.66;65.81;102006.16;5040055;28;20037;-72
2022/08/31 08:05:19;;;;;;;9.40;3.38;;;;;;;16.71;67.27;101999.34;5039352;28;20037;-73
2022/08/31 08:07:47;;;;;;;8.98;3.20;;;;;;;16.76;67.48;102002.56;5046952;28;20024;-73
2022/08/31 08:10:14;;;;;;;9.30;3.30;;;;;;;16.85;66.85;102002.78;5035387;28;20033;-73
2022/08/31 08:12:41;;;;;;;10.07;3.30;;;;;;;16.88;66.06;102010.72;5042226;28;20043;-73
2022/08/31 08:15:08;;;;;;;9.88;3.50;;;;;;;16.92;66.34;102020.34;5045148;28;20895;-73
2022/08/31 08:17:33;;;;;;;11.38;3.75;;;;;;;16.98;67.70;102019.00;5043771;28;20058;-72
2022/08/31 08:19:58;;;;;;;8.35;3.28;;;;;;;17.01;67.05;102011.44;5032825;28;20431;-73
2022/08/31 08:22:24;;;;;;;12.63;3.80;;;;;;;17.05;66.60;102018.34;5043164;28;20040;-73
2022/08/31 08:24:50;;;;;;;8.93;3.60;;;;;;;17.10;65.59;102023.41;5046590;28;20024;-73
2022/08/31 08:27:15;;;;;;;10.18;3.95;;;;;;;17.14;66.32;102024.88;5048118;28;20028;-73
2022/08/31 08:29:40;;;;;;;12.00;3.83;;;;;;;17.16;65.58;102030.19;5037064;28;20035;-72
2022/08/31 08:32:07;;;;;;;12.95;3.80;;;;;;;17.19;66.57;102032.63;5046543;28;20400;-72
2022/08/31 08:34:33;;;;;;;12.70;3.60;;;;;;;17.19;66.50;102029.91;5050185;28;20063;-72
2022/08/31 08:36:59;;;;;;;7.72;3.47;;;;;;;17.22;67.53;102021.50;5052206;28;20028;-72
2022/08/31 08:39:25;;;;;;;11.05;3.65;;;;;;;17.25;66.30;102034.88;5031071;28;20029;-72
2022/08/31 08:41:54;;;;;;;11.75;3.75;;;;;;;17.28;66.71;102024.59;5038870;28;20594;-72
2022/08/31 08:44:24;;;;;;;10.25;3.35;;;;;;;17.33;66.51;102029.66;5048345;28;20044;-72
2022/08/31 08:46:55;;;;;;;9.38;3.55;;;;;;;17.38;67.27;102031.97;5046609;28;20038;-72
2022/08/31 08:49:31;;;;;;;9.88;3.58;;;;;;;17.41;67.43;102026.28;5040767;28;20025;-72
2022/08/31 08:52:02;;;;;;;9.25;4.03;;;;;;;17.46;67.66;102029.50;5036617;28;20025;-72
2022/08/31 08:54:29;;;;;;;10.52;4.03;;;;;;;17.52;67.20;102023.53;5045534;28;20028;-72
2022/08/31 08:56:56;;;;;;;10.18;3.75;;;;;;;17.58;67.13;102028.44;5047277;28;20104;-72
2022/08/31 08:59:22;;;;;;;10.15;3.78;;;;;;;17.60;67.34;102020.16;5037172;28;20026;-72
2022/08/31 09:01:55;;;;;;;13.13;4.13;;;;;;;17.68;66.80;102017.66;5042275;28;20033;-72
2022/08/31 09:04:38;;;;;;;13.32;4.82;;;;;;;17.76;67.00;102011.56;5049525;28;20043;-72
2022/08/31 09:07:30;;;;;;;12.07;3.75;;;;;;;17.84;66.50;102016.34;5050391;28;20059;-72
2022/08/31 09:10:22;;;;;;;12.27;4.15;;;;;;;17.91;67.61;102015.72;5037439;28;20519;-72
2022/08/31 09:13:08;;;;;;;12.77;4.53;;;;;;;18.00;67.01;102019.50;5042724;28;20362;-72
2022/08/31 09:16:00;;;;;;;7.70;3.35;;;;;;;18.04;66.61;102012.81;5050787;28;20082;-72
2022/08/31 09:18:54;;;;;;;11.18;4.25;;;;;;;18.12;67.49;102023.88;5051512;28;20025;-72
2022/08/31 09:21:27;;;;;;;13.95;4.22;;;;;;;18.17;66.07;102023.50;5049979;28;20032;-73
2022/08/31 09:24:00;;;;;;;13.13;4.55;;;;;;;18.24;66.63;102010.19;5050845;28;20033;-73
2022/08/31 09:26:31;;;;;;;15.25;4.18;;;;;;;18.29;66.61;102013.41;5050486;28;20021;-73
2022/08/31 09:28:57;;;;;;;11.32;4.15;;;;;;;18.36;64.74;102003.69;5051467;28;20401;-73
2022/08/31 09:31:38;;;;;;;10.35;4.07;;;;;;;18.40;66.80;102016.00;5043492;28;20075;-73
2022/08/31 09:34:09;;;;;;;17.80;5.18;;;;;;;18.48;65.60;102016.22;5047117;28;20511;-73
2022/08/31 09:36:39;;;;;;;14.52;4.78;;;;;;;18.52;66.78;102012.22;5041163;28;20025;-73
2022/08/31 09:39:30;;;;;;;15.05;5.30;;;;;;;18.57;66.29;102006.38;5036975;28;20017;-73
2022/08/31 09:42:02;;;;;;;15.68;5.30;;;;;;;18.68;66.38;102019.00;5049494;28;20059;-73
2022/08/31 09:44:31;;;;;;;14.55;4.70;;;;;;;18.73;66.42;102008.56;5047354;28;20043;-72
2022/08/31 09:47:02;;;;;;;18.15;4.80;;;;;;;18.78;66.18;102011.72;5043115;28;20029;-72
2022/08/31 09:49:35;;;;;;;14.13;4.72;;;;;;;18.81;64.63;102024.22;5040621;28;20550;-72
2022/08/31 09:55:11;;;;;;;12.68;4.85;;;;;;;18.84;66.65;102016.66;5047439;28;20025;-72
2022/08/31 09:55:12;;;;;;;13.77;5.07;;;;;;;18.91;64.97;102013.41;5045584;28;20029;-72
2022/08/31 09:57:44;;;;;;;15.38;4.80;;;;;;;18.98;66.68;102020.03;5046170;28;20207;-72
2022/08/31 10:00:15;;;;;;;14.27;5.32;;;;;;;19.03;65.23;102001.38;5044126;28;20037;-72
2022/08/31 10:02:41;;;;;;;15.07;5.68;;;;;;;19.07;66.18;101996.53;5049481;28;20065;-72
2022/08/31 10:05:39;;;;;;;13.32;5.32;;;;;;;19.12;66.65;101992.38;5048376;28;20072;-72
2022/08/31 10:08:39;;;;;;;15.68;5.50;;;;;;;19.25;66.10;101999.41;5042570;28;20488;-72
2022/08/31 10:11:19;;;;;;;18.50;6.47;;;;;;;19.30;63.46;102006.16;5049474;28;20123;-72
2022/08/31 10:14:25;;;;;;;18.13;5.65;;;;;;;19.36;65.35;102007.47;5047286;28;20094;-72
2022/08/31 10:16:59;;;;;;;15.10;5.60;;;;;;;19.40;64.31;102000.72;5048089;28;20047;-73
2022/08/31 10:19:35;;;;;;;19.80;6.10;;;;;;;19.48;63.57;102006.31;5047711;28;20037;-73
2022/08/31 10:22:15;;;;;;;15.35;5.10;;;;;;;19.52;63.72;102001.44;5044227;28;20120;-73
2022/08/31 10:24:47;;;;;;;15.63;4.90;;;;;;;19.60;64.61;101993.41;5045483;28;20032;-73
2022/08/31 10:27:39;;;;;;;15.38;4.80;;;;;;;19.67;64.73;101996.41;5042467;28;20078;-73
2022/08/31 10:30:17;;;;;;;16.17;5.22;;;;;;;19.75;61.91;101993.81;5033005;28;20041;-73
2022/08/31 10:33:05;;;;;;;16.48;5.70;;;;;;;19.78;62.68;101998.13;5035783;28;20804;-73
2022/08/31 10:35:39;;;;;;;16.00;4.60;;;;;;;19.79;63.94;101995.28;5036095;28;20107;-73
2022/08/31 10:38:28;;;;;;;13.82;5.22;;;;;;;19.82;63.73;101989.53;5032855;28;20033;-73
2022/08/31 10:41:01;;;;;;;14.35;4.85;;;;;;;19.84;63.35;101993.00;5035618;28;20519;-73
2022/08/31 10:43:33;;;;;;;14.40;5.40;;;;;;;19.90;62.45;101989.69;5045756;28;20028;-73
2022/08/31 10:46:01;;;;;;;17.80;5.88;;;;;;;19.96;62.45;101988.22;5041173;28;20468;-73
2022/08/31 10:48:26;;;;;;;16.45;5.97;;;;;;;20.00;61.88;101994.25;5040243;28;20082;-73
2022/08/31 10:51:07;;;;;;;17.58;6.07;;;;;;;20.00;62.62;101989.66;5035879;28;20029;-73
2022/08/31 10:53:51;;;;;;;18.40;6.28;;;;;;;19.99;62.86;101985.22;5038844;28;20086;-73
2022/08/31 10:56:38;;;;;;;19.42;7.88;;;;;;;20.02;61.72;101984.06;5037721;28;20413;-73
2022/08/31 10:59:14;;;;;;;18.15;6.40;;;;;;;20.06;62.07;101989.06;5041480;28;20029;-73
2022/08/31 11:01:56;;;;;;;18.80;5.85;;;;;;;20.11;62.93;101983.16;5038017;28;20400;-73
2022/08/31 11:04:45;;;;;;;16.38;5.97;;;;;;;20.13;63.80;101981.13;5044988;28;20051;-73
2022/08/31 11:07:25;;;;;;;20.13;6.40;;;;;;;20.19;64.09;101994.22;5036924;28;20037;-73
2022/08/31 11:10:04;;;;;;;16.23;6.38;;;;;;;20.23;62.89;101983.84;5039131;28;20102;-73
2022/08/31 11:12:39;;;;;;;11.52;4.55;;;;;;;20.25;62.75;101974.50;5044447;28;20036;-73
2022/08/31 11:15:24;;;;;;;17.52;5.88;;;;;;;20.30;62.81;101973.22;5048067;28;20029;-73
2022/08/31 11:17:52;;;;;;;20.33;6.85;;;;;;;20.38;62.87;101976.91;5057504;28;20394;-73
2022/08/31 11:20:50;;;;;;;16.87;6.43;;;;;;;20.44;63.62;101978.19;5047641;28;20469;-73
2022/08/31 11:23:37;;;;;;;18.70;5.97;;;;;;;20.45;62.81;101977.16;5047629;28;20044;-73
2022/08/31 11:26:15;;;;;;;21.38;6.65;;;;;;;20.55;62.41;101988.91;5047044;28;20044;-73
2022/08/31 11:29:08;;;;;;;14.75;6.00;;;;;;;20.64;61.62;101986.28;5042591;28;20231;-73
2022/08/31 11:31:37;;;;;;;16.13;5.70;;;;;;;20.64;61.70;101980.81;5049958;28;20103;-73
2022/08/31 11:34:24;;;;;;;15.88;6.00;;;;;;;20.72;62.25;101972.78;5050314;28;20021;-73
2022/08/31 11:37:03;;;;;;;15.50;5.43;;;;;;;20.74;61.23;101970.75;5044964;28;20132;-73
2022/08/31 11:39:29;;;;;;;12.93;4.20;;;;;;;20.78;61.44;101969.44;5049161;28;20531;-73